sensor_id;sensor_type;location;lat;lon;timestamp;pressure;altitude;pressure_sealevel;temperature;humidity
17785;BME280;9016;53.582;10.062;2023-01-27T00:01:17;102368.13;;;6.78;83.94
17785;BME280;9016;53.582;10.062;2023-01-27T00:03:46;102368.22;;;6.73;83.70
17785;BME280;9016;53.582;10.062;2023-01-27T00:06:14;102382.53;;;6.63;83.48
17785;BME280;9016;53.582;10.062;2023-01-27T00:08:42;102375.63;;;6.55;84.87
17785;BME280;9016;53.582;10.062;2023-01-27T00:11:10;102375.47;;;6.62;85.04
17785;BME280;9016;53.582;10.062;2023-01-27T00:13:55;102378.94;;;6.66;84.79
17785;BME280;9016;53.582;10.062;2023-01-27T00:16:25;102378.00;;;6.70;85.48
17785;BME280;9016;53.582;10.062;2023-01-27T00:18:53;102380.69;;;6.68;85.71
17785;BME280;9016;53.582;10.062;2023-01-27T00:21:20;102380.69;;;6.68;86.53
17785;BME280;9016;53.582;10.062;2023-01-27T00:24:08;102387.75;;;6.68;87.04
17785;BME280;9016;53.582;10.062;2023-01-27T00:26:53;102380.78;;;6.64;87.35
17785;BME280;9016;53.582;10.062;2023-01-27T00:29:21;102388.59;;;6.70;87.82
17785;BME280;9016;53.582;10.062;2023-01-27T00:31:50;102394.00;;;6.65;87.51
17785;BME280;9016;53.582;10.062;2023-01-27T00:34:36;102393.16;;;6.62;88.44
17785;BME280;9016;53.582;10.062;2023-01-27T00:37:04;102392.16;;;6.69;88.96
17785;BME280;9016;53.582;10.062;2023-01-27T00:39:32;102393.75;;;6.77;88.07
17785;BME280;9016;53.582;10.062;2023-01-27T00:42:01;102399.88;;;6.81;87.57
17785;BME280;9016;53.582;10.062;2023-01-27T00:44:29;102397.44;;;6.69;88.29
17785;BME280;9016;53.582;10.062;2023-01-27T00:46:58;102399.34;;;6.61;88.19
17785;BME280;9016;53.582;10.062;2023-01-27T00:49:26;102390.53;;;6.60;88.01
17785;BME280;9016;53.582;10.062;2023-01-27T00:51:54;102398.50;;;6.59;88.33
17785;BME280;9016;53.582;10.062;2023-01-27T00:54:22;102407.09;;;6.73;88.08
17785;BME280;9016;53.582;10.062;2023-01-27T00:56:50;102416.81;;;6.72;87.66
17785;BME280;9016;53.582;10.062;2023-01-27T00:59:18;102407.16;;;6.68;88.63
17785;BME280;9016;53.582;10.062;2023-01-27T01:01:46;102414.91;;;6.79;88.08
17785;BME280;9016;53.582;10.062;2023-01-27T01:04:15;102418.41;;;6.81;86.97
17785;BME280;9016;53.582;10.062;2023-01-27T01:06:43;102415.78;;;6.79;87.22
17785;BME280;9016;53.582;10.062;2023-01-27T01:09:11;102420.31;;;6.74;87.45
17785;BME280;9016;53.582;10.062;2023-01-27T01:11:39;102417.69;;;6.73;88.08
17785;BME280;9016;53.582;10.062;2023-01-27T01:14:07;102417.41;;;6.86;87.79
17785;BME280;9016;53.582;10.062;2023-01-27T01:16:35;102421.84;;;6.87;86.83
17785;BME280;9016;53.582;10.062;2023-01-27T01:19:03;102433.34;;;6.85;87.66
17785;BME280;9016;53.582;10.062;2023-01-27T01:21:32;102423.84;;;6.73;87.58
17785;BME280;9016;53.582;10.062;2023-01-27T01:24:00;102437.78;;;6.86;86.99
17785;BME280;9016;53.582;10.062;2023-01-27T01:26:28;102423.53;;;6.90;86.90
17785;BME280;9016;53.582;10.062;2023-01-27T01:28:56;102430.63;;;6.89;87.30
17785;BME280;9016;53.582;10.062;2023-01-27T01:31:24;102431.22;;;7.05;86.58
17785;BME280;9016;53.582;10.062;2023-01-27T01:33:52;102433.00;;;7.05;86.41
17785;BME280;9016;53.582;10.062;2023-01-27T01:36:20;102430.53;;;6.94;86.69
17785;BME280;9016;53.582;10.062;2023-01-27T01:38:53;102432.47;;;6.84;86.38
17785;BME280;9016;53.582;10.062;2023-01-27T01:41:22;102437.69;;;6.89;87.27
17785;BME280;9016;53.582;10.062;2023-01-27T01:43:50;102441.25;;;6.89;87.59
17785;BME280;9016;53.582;10.062;2023-01-27T01:46:19;102441.09;;;6.95;87.40
17785;BME280;9016;53.582;10.062;2023-01-27T01:48:51;102440.97;;;7.05;87.49
17785;BME280;9016;53.582;10.062;2023-01-27T01:51:22;102441.41;;;6.80;88.46
17785;BME280;9016;53.582;10.062;2023-01-27T01:53:57;102447.63;;;6.78;88.48
17785;BME280;9016;53.582;10.062;2023-01-27T01:56:31;102448.50;;;6.78;88.97
17785;BME280;9016;53.582;10.062;2023-01-27T01:59:03;102446.69;;;6.79;89.25
17785;BME280;9016;53.582;10.062;2023-01-27T02:01:33;102448.50;;;6.78;88.66
17785;BME280;9016;53.582;10.062;2023-01-27T02:04:04;102447.47;;;6.87;89.06
17785;BME280;9016;53.582;10.062;2023-01-27T02:06:39;102443.13;;;6.81;89.49
17785;BME280;9016;53.582;10.062;2023-01-27T02:09:10;102448.50;;;6.78;89.22
17785;BME280;9016;53.582;10.062;2023-01-27T02:11:40;102457.16;;;6.86;89.42
17785;BME280;9016;53.582;10.062;2023-01-27T02:14:09;102449.44;;;6.74;89.65
17785;BME280;9016;53.582;10.062;2023-01-27T02:16:39;102454.06;;;6.63;89.79
17785;BME280;9016;53.582;10.062;2023-01-27T02:19:10;102458.13;;;6.82;90.21
17785;BME280;9016;53.582;10.062;2023-01-27T02:21:43;102454.53;;;6.86;89.18
17785;BME280;9016;53.582;10.062;2023-01-27T02:24:12;102455.41;;;6.87;88.60
17785;BME280;9016;53.582;10.062;2023-01-27T02:26:43;102460.00;;;6.76;88.85
17785;BME280;9016;53.582;10.062;2023-01-27T02:29:12;102457.19;;;6.85;89.74
17785;BME280;9016;53.582;10.062;2023-01-27T02:31:41;102476.66;;;6.82;88.61
17785;BME280;9016;53.582;10.062;2023-01-27T02:34:12;102461.63;;;6.84;88.43
17785;BME280;9016;53.582;10.062;2023-01-27T02:36:45;102469.69;;;6.77;88.26
17785;BME280;9016;53.582;10.062;2023-01-27T02:39:16;102474.13;;;6.78;88.86
17785;BME280;9016;53.582;10.062;2023-01-27T02:41:49;102483.72;;;6.83;89.26
17785;BME280;9016;53.582;10.062;2023-01-27T02:44:18;102478.63;;;6.73;89.06
17785;BME280;9016;53.582;10.062;2023-01-27T02:46:46;102475.97;;;6.71;89.91
17785;BME280;9016;53.582;10.062;2023-01-27T02:49:14;102476.03;;;6.68;88.80
17785;BME280;9016;53.582;10.062;2023-01-27T02:51:46;102478.81;;;6.61;90.17
17785;BME280;9016;53.582;10.062;2023-01-27T02:54:14;102486.56;;;6.71;90.76
17785;BME280;9016;53.582;10.062;2023-01-27T02:56:42;102481.34;;;6.68;90.97
17785;BME280;9016;53.582;10.062;2023-01-27T02:59:11;102482.19;;;6.70;89.94
17785;BME280;9016;53.582;10.062;2023-01-27T03:01:40;102481.44;;;6.62;90.66
17785;BME280;9016;53.582;10.062;2023-01-27T03:04:08;102489.38;;;6.62;90.95
17785;BME280;9016;53.582;10.062;2023-01-27T03:06:37;102492.13;;;6.58;90.75
17785;BME280;9016;53.582;10.062;2023-01-27T03:09:05;102495.56;;;6.63;90.93
17785;BME280;9016;53.582;10.062;2023-01-27T03:11:34;102498.50;;;6.45;90.98
17785;BME280;9016;53.582;10.062;2023-01-27T03:14:32;102498.56;;;6.42;91.64
17785;BME280;9016;53.582;10.062;2023-01-27T03:17:17;102503.81;;;6.43;91.25
17785;BME280;9016;53.582;10.062;2023-01-27T03:20:03;102507.38;;;6.41;90.60
17785;BME280;9016;53.582;10.062;2023-01-27T03:22:31;102512.56;;;6.48;90.95
17785;BME280;9016;53.582;10.062;2023-01-27T03:24:59;102505.41;;;6.53;90.73
17785;BME280;9016;53.582;10.062;2023-01-27T03:27:27;102516.84;;;6.55;90.83
17785;BME280;9016;53.582;10.062;2023-01-27T03:29:56;102521.34;;;6.50;91.67
17785;BME280;9016;53.582;10.062;2023-01-27T03:32:28;102517.94;;;6.42;91.78
17785;BME280;9016;53.582;10.062;2023-01-27T03:34:56;102525.16;;;6.31;92.05
17785;BME280;9016;53.582;10.062;2023-01-27T03:37:25;102524.97;;;6.45;92.16
17785;BME280;9016;53.582;10.062;2023-01-27T03:40:11;102539.94;;;6.49;91.12
17785;BME280;9016;53.582;10.062;2023-01-27T03:42:58;102542.66;;;6.43;91.48
17785;BME280;9016;53.582;10.062;2023-01-27T03:45:47;102535.69;;;6.37;90.30
17785;BME280;9016;53.582;10.062;2023-01-27T03:48:33;102547.91;;;6.44;91.21
17785;BME280;9016;53.582;10.062;2023-01-27T03:51:02;102546.19;;;6.43;90.62
17785;BME280;9016;53.582;10.062;2023-01-27T03:53:31;102547.09;;;6.41;90.33
17785;BME280;9016;53.582;10.062;2023-01-27T03:55:59;102547.97;;;6.41;90.36
17785;BME280;9016;53.582;10.062;2023-01-27T03:58:29;102546.09;;;6.48;89.64
17785;BME280;9016;53.582;10.062;2023-01-27T04:01:00;102563.06;;;6.35;89.06
17785;BME280;9016;53.582;10.062;2023-01-27T04:03:31;102557.69;;;6.41;90.02
17785;BME280;9016;53.582;10.062;2023-01-27T04:06:18;102560.38;;;6.38;89.78
17785;BME280;9016;53.582;10.062;2023-01-27T04:09:04;102558.84;;;6.23;89.46
17785;BME280;9016;53.582;10.062;2023-01-27T04:11:34;102565.88;;;6.23;90.19
17785;BME280;9016;53.582;10.062;2023-01-27T04:14:20;102570.41;;;6.15;90.52
17785;BME280;9016;53.582;10.062;2023-01-27T04:16:51;102551.00;;;6.14;91.01
17785;BME280;9016;53.582;10.062;2023-01-27T04:19:22;102565.09;;;6.15;90.76
17785;BME280;9016;53.582;10.062;2023-01-27T04:21:51;102561.56;;;6.16;90.09
17785;BME280;9016;53.582;10.062;2023-01-27T04:24:19;102558.97;;;6.11;89.25
17785;BME280;9016;53.582;10.062;2023-01-27T04:26:53;102558.97;;;6.14;89.45
17785;BME280;9016;53.582;10.062;2023-01-27T04:29:23;102558.13;;;6.09;89.70
17785;BME280;9016;53.582;10.062;2023-01-27T04:31:53;102566.97;;;6.05;89.86
17785;BME280;9016;53.582;10.062;2023-01-27T04:34:24;102564.44;;;5.96;90.05
17785;BME280;9016;53.582;10.062;2023-01-27T04:36:52;102567.94;;;5.99;90.34
17785;BME280;9016;53.582;10.062;2023-01-27T04:39:20;102573.06;;;6.13;90.18
17785;BME280;9016;53.582;10.062;2023-01-27T04:41:48;102576.59;;;6.14;89.31
17785;BME280;9016;53.582;10.062;2023-01-27T04:44:18;102574.75;;;6.19;90.51
17785;BME280;9016;53.582;10.062;2023-01-27T04:46:47;102581.06;;;6.07;89.99
17785;BME280;9016;53.582;10.062;2023-01-27T04:49:17;102576.00;;;5.89;90.00
17785;BME280;9016;53.582;10.062;2023-01-27T04:51:45;102583.03;;;5.91;90.94
17785;BME280;9016;53.582;10.062;2023-01-27T04:54:13;102583.88;;;5.95;91.21
17785;BME280;9016;53.582;10.062;2023-01-27T04:56:52;102585.50;;;6.07;90.42
17785;BME280;9016;53.582;10.062;2023-01-27T04:59:20;102592.69;;;5.97;89.87
17785;BME280;9016;53.582;10.062;2023-01-27T05:01:48;102595.22;;;6.06;89.92
17785;BME280;9016;53.582;10.062;2023-01-27T05:04:19;102600.47;;;6.08;89.63
17785;BME280;9016;53.582;10.062;2023-01-27T05:06:47;102603.97;;;6.11;89.32
17785;BME280;9016;53.582;10.062;2023-01-27T05:09:15;102604.97;;;6.03;89.04
17785;BME280;9016;53.582;10.062;2023-01-27T05:11:43;102602.19;;;6.13;89.28
17785;BME280;9016;53.582;10.062;2023-01-27T05:14:11;102611.00;;;6.11;88.13
17785;BME280;9016;53.582;10.062;2023-01-27T05:16:40;102606.84;;;5.93;88.30
17785;BME280;9016;53.582;10.062;2023-01-27T05:19:08;102611.19;;;5.98;88.12
17785;BME280;9016;53.582;10.062;2023-01-27T05:21:37;102617.41;;;5.93;88.82
17785;BME280;9016;53.582;10.062;2023-01-27T05:24:05;102613.75;;;6.06;88.94
17785;BME280;9016;53.582;10.062;2023-01-27T05:26:34;102604.97;;;6.03;87.92
17785;BME280;9016;53.582;10.062;2023-01-27T05:29:02;102612.09;;;5.94;88.23
17785;BME280;9016;53.582;10.062;2023-01-27T05:31:30;102607.66;;;5.98;88.79
17785;BME280;9016;53.582;10.062;2023-01-27T05:34:00;102609.44;;;5.96;88.28
17785;BME280;9016;53.582;10.062;2023-01-27T05:36:29;102614.78;;;5.91;88.28
17785;BME280;9016;53.582;10.062;2023-01-27T05:38:58;102607.63;;;5.99;87.54
17785;BME280;9016;53.582;10.062;2023-01-27T05:41:28;102604.13;;;5.96;88.24
17785;BME280;9016;53.582;10.062;2023-01-27T05:43:57;102608.69;;;5.85;87.30
17785;BME280;9016;53.582;10.062;2023-01-27T05:46:27;102606.03;;;5.86;87.89
17785;BME280;9016;53.582;10.062;2023-01-27T05:48:59;102601.59;;;5.90;87.93
17785;BME280;9016;53.582;10.062;2023-01-27T05:51:30;102601.59;;;5.87;86.24
17785;BME280;9016;53.582;10.062;2023-01-27T05:54:00;102611.19;;;5.97;86.53
17785;BME280;9016;53.582;10.062;2023-01-27T05:56:28;102615.84;;;5.75;85.07
17785;BME280;9016;53.582;10.062;2023-01-27T05:58:57;102624.69;;;5.68;85.23
17785;BME280;9016;53.582;10.062;2023-01-27T06:01:27;102623.84;;;5.65;85.54
17785;BME280;9016;53.582;10.062;2023-01-27T06:03:56;102634.41;;;5.69;85.73
17785;BME280;9016;53.582;10.062;2023-01-27T06:06:26;102627.28;;;5.74;85.94
17785;BME280;9016;53.582;10.062;2023-01-27T06:08:54;102634.31;;;5.77;85.16
17785;BME280;9016;53.582;10.062;2023-01-27T06:11:23;102633.41;;;5.78;85.15
17785;BME280;9016;53.582;10.062;2023-01-27T06:13:52;102633.47;;;5.73;84.97
17785;BME280;9016;53.582;10.062;2023-01-27T06:16:21;102640.66;;;5.59;85.79
17785;BME280;9016;53.582;10.062;2023-01-27T06:18:50;102647.72;;;5.60;85.84
17785;BME280;9016;53.582;10.062;2023-01-27T06:21:18;102648.53;;;5.65;85.38
17785;BME280;9016;53.582;10.062;2023-01-27T06:23:47;102648.59;;;5.58;86.14
17785;BME280;9016;53.582;10.062;2023-01-27T06:26:17;102653.81;;;5.65;87.03
17785;BME280;9016;53.582;10.062;2023-01-27T06:28:47;102666.25;;;5.59;85.99
17785;BME280;9016;53.582;10.062;2023-01-27T06:31:17;102661.78;;;5.64;86.21
17785;BME280;9016;53.582;10.062;2023-01-27T06:33:47;102668.84;;;5.62;86.36
17785;BME280;9016;53.582;10.062;2023-01-27T06:36:17;102665.41;;;5.52;86.26
17785;BME280;9016;53.582;10.062;2023-01-27T06:38:46;102670.66;;;5.54;86.08
17785;BME280;9016;53.582;10.062;2023-01-27T06:41:14;102674.22;;;5.53;86.74
17785;BME280;9016;53.582;10.062;2023-01-27T06:43:42;102685.63;;;5.58;86.33
17785;BME280;9016;53.582;10.062;2023-01-27T06:46:12;102686.47;;;5.63;85.94
17785;BME280;9016;53.582;10.062;2023-01-27T06:48:40;102675.09;;;5.52;86.16
17785;BME280;9016;53.582;10.062;2023-01-27T06:51:08;102692.63;;;5.63;86.04
17785;BME280;9016;53.582;10.062;2023-01-27T06:53:36;102691.75;;;5.66;86.16
17785;BME280;9016;53.582;10.062;2023-01-27T06:56:05;102695.19;;;5.72;86.28
17785;BME280;9016;53.582;10.062;2023-01-27T06:58:33;102695.25;;;5.65;85.63
17785;BME280;9016;53.582;10.062;2023-01-27T07:01:03;102696.03;;;5.76;85.97
17785;BME280;9016;53.582;10.062;2023-01-27T07:03:33;102704.81;;;5.79;85.60
17785;BME280;9016;53.582;10.062;2023-01-27T07:05:59;102708.41;;;5.74;85.25
17785;BME280;9016;53.582;10.062;2023-01-27T07:08:27;102708.38;;;5.77;85.73
17785;BME280;9016;53.582;10.062;2023-01-27T07:10:55;102722.38;;;5.92;85.53
17785;BME280;9016;53.582;10.062;2023-01-27T07:13:23;102723.19;;;5.99;85.05
17785;BME280;9016;53.582;10.062;2023-01-27T07:15:54;102736.59;;;5.76;84.91
17785;BME280;9016;53.582;10.062;2023-01-27T07:18:23;102729.63;;;5.65;86.01
17785;BME280;9016;53.582;10.062;2023-01-27T07:20:52;102744.63;;;5.67;86.67
17785;BME280;9016;53.582;10.062;2023-01-27T07:23:20;102735.78;;;5.68;86.90
17785;BME280;9016;53.582;10.062;2023-01-27T07:25:48;102743.72;;;5.68;87.22
17785;BME280;9016;53.582;10.062;2023-01-27T07:28:16;102746.41;;;5.61;87.67
17785;BME280;9016;53.582;10.062;2023-01-27T07:30:43;102749.06;;;5.59;87.41
17785;BME280;9016;53.582;10.062;2023-01-27T07:33:12;102753.34;;;5.74;87.61
17785;BME280;9016;53.582;10.062;2023-01-27T07:35:41;102751.66;;;5.70;86.75
17785;BME280;9016;53.582;10.062;2023-01-27T07:38:11;102762.28;;;5.61;85.60
17785;BME280;9016;53.582;10.062;2023-01-27T07:40:39;102762.25;;;5.70;86.41
17785;BME280;9016;53.582;10.062;2023-01-27T07:43:08;102756.03;;;5.72;86.39
17785;BME280;9016;53.582;10.062;2023-01-27T07:45:37;102757.75;;;5.81;86.09
17785;BME280;9016;53.582;10.062;2023-01-27T07:48:06;102760.38;;;5.82;85.67
17785;BME280;9016;53.582;10.062;2023-01-27T07:50:35;102763.91;;;5.80;85.53
17785;BME280;9016;53.582;10.062;2023-01-27T07:53:04;102763.06;;;5.76;84.47
17785;BME280;9016;53.582;10.062;2023-01-27T07:55:33;102755.09;;;5.78;84.46
17785;BME280;9016;53.582;10.062;2023-01-27T07:58:01;102756.84;;;5.80;84.58
17785;BME280;9016;53.582;10.062;2023-01-27T08:00:30;102759.56;;;5.71;84.30
17785;BME280;9016;53.582;10.062;2023-01-27T08:02:59;102762.22;;;5.71;84.31
17785;BME280;9016;53.582;10.062;2023-01-27T08:05:31;102763.91;;;5.78;84.79
17785;BME280;9016;53.582;10.062;2023-01-27T08:08:01;102766.53;;;5.83;83.33
17785;BME280;9016;53.582;10.062;2023-01-27T08:10:35;102765.72;;;5.73;83.54
17785;BME280;9016;53.582;10.062;2023-01-27T08:13:04;102773.59;;;5.85;84.16
17785;BME280;9016;53.582;10.062;2023-01-27T08:15:32;102769.94;;;6.00;82.94
17785;BME280;9016;53.582;10.062;2023-01-27T08:18:01;102773.47;;;5.99;82.13
17785;BME280;9016;53.582;10.062;2023-01-27T08:20:29;102770.81;;;6.00;83.33
17785;BME280;9016;53.582;10.062;2023-01-27T08:23:00;102780.56;;;5.95;82.91
17785;BME280;9016;53.582;10.062;2023-01-27T08:25:32;102776.13;;;5.99;82.91
17785;BME280;9016;53.582;10.062;2023-01-27T08:28:02;102778.75;;;6.00;83.27
17785;BME280;9016;53.582;10.062;2023-01-27T08:30:30;102784.13;;;5.91;84.03
17785;BME280;9016;53.582;10.062;2023-01-27T08:32:57;102789.47;;;5.85;83.95
17785;BME280;9016;53.582;10.062;2023-01-27T08:35:28;102788.56;;;5.82;84.83
17785;BME280;9016;53.582;10.062;2023-01-27T08:37:56;102791.16;;;5.92;85.00
17785;BME280;9016;53.582;10.062;2023-01-27T08:40:23;102797.31;;;5.97;85.43
17785;BME280;9016;53.582;10.062;2023-01-27T08:42:53;102794.63;;;6.00;84.90
17785;BME280;9016;53.582;10.062;2023-01-27T08:45:24;102797.41;;;5.82;84.45
17785;BME280;9016;53.582;10.062;2023-01-27T08:47:52;102783.25;;;5.91;85.40
17785;BME280;9016;53.582;10.062;2023-01-27T08:50:20;102794.78;;;5.84;84.59
17785;BME280;9016;53.582;10.062;2023-01-27T08:52:48;102801.78;;;5.88;85.41
17785;BME280;9016;53.582;10.062;2023-01-27T08:55:17;102795.59;;;5.90;85.88
17785;BME280;9016;53.582;10.062;2023-01-27T08:57:45;102800.00;;;5.88;84.67
17785;BME280;9016;53.582;10.062;2023-01-27T09:00:15;102808.81;;;5.93;85.16
17785;BME280;9016;53.582;10.062;2023-01-27T09:02:44;102816.75;;;5.90;84.46
17785;BME280;9016;53.582;10.062;2023-01-27T09:05:12;102814.97;;;5.95;84.81
17785;BME280;9016;53.582;10.062;2023-01-27T09:07:40;102807.97;;;5.90;85.19
17785;BME280;9016;53.582;10.062;2023-01-27T09:10:09;102816.75;;;5.92;85.35
17785;BME280;9016;53.582;10.062;2023-01-27T09:12:45;102819.38;;;5.93;85.72
17785;BME280;9016;53.582;10.062;2023-01-27T09:15:15;102821.97;;;6.01;85.13
17785;BME280;9016;53.582;10.062;2023-01-27T09:17:43;102812.38;;;5.89;84.47
17785;BME280;9016;53.582;10.062;2023-01-27T09:20:11;102810.53;;;5.94;85.57
17785;BME280;9016;53.582;10.062;2023-01-27T09:22:40;102829.09;;;5.88;84.50
17785;BME280;9016;53.582;10.062;2023-01-27T09:25:11;102837.06;;;5.90;84.30
17785;BME280;9016;53.582;10.062;2023-01-27T09:27:40;102838.72;;;6.00;84.44
17785;BME280;9016;53.582;10.062;2023-01-27T09:30:10;102841.44;;;5.92;84.20
17785;BME280;9016;53.582;10.062;2023-01-27T09:32:40;102845.88;;;5.87;83.79
17785;BME280;9016;53.582;10.062;2023-01-27T09:35:09;102853.84;;;5.86;83.40
17785;BME280;9016;53.582;10.062;2023-01-27T09:37:41;102847.63;;;5.88;83.07
17785;BME280;9016;53.582;10.062;2023-01-27T09:40:17;102848.53;;;5.81;83.80
17785;BME280;9016;53.582;10.062;2023-01-27T09:42:57;102836.19;;;5.89;82.48
17785;BME280;9016;53.582;10.062;2023-01-27T09:45:38;102837.03;;;5.93;83.17
17785;BME280;9016;53.582;10.062;2023-01-27T09:48:34;102836.22;;;5.83;82.04
17785;BME280;9016;53.582;10.062;2023-01-27T09:51:11;102841.53;;;5.76;81.47
17785;BME280;9016;53.582;10.062;2023-01-27T09:54:00;102841.69;;;5.52;81.89
17785;BME280;9016;53.582;10.062;2023-01-27T09:56:51;102838.03;;;5.71;82.04
17785;BME280;9016;53.582;10.062;2023-01-27T09:59:40;102847.78;;;5.66;81.04
17785;BME280;9016;53.582;10.062;2023-01-27T10:02:23;102841.59;;;5.67;81.05
17785;BME280;9016;53.582;10.062;2023-01-27T10:05:34;102851.28;;;5.66;80.33
17785;BME280;9016;53.582;10.062;2023-01-27T10:11:07;102845.19;;;5.54;79.60
17785;BME280;9016;53.582;10.062;2023-01-27T10:13:44;102852.16;;;5.70;78.13
17785;BME280;9016;53.582;10.062;2023-01-27T10:16:30;102839.69;;;5.91;76.24
17785;BME280;9016;53.582;10.062;2023-01-27T10:19:13;102837.78;;;6.07;75.04
17785;BME280;9016;53.582;10.062;2023-01-27T10:21:55;102841.22;;;6.20;73.82
17785;BME280;9016;53.582;10.062;2023-01-27T10:24:33;102848.25;;;6.21;73.73
17785;BME280;9016;53.582;10.062;2023-01-27T10:27:09;102847.16;;;6.44;73.67
17785;BME280;9016;53.582;10.062;2023-01-27T10:29:44;102836.91;;;6.05;72.02
17785;BME280;9016;53.582;10.062;2023-01-27T10:32:21;102840.38;;;6.15;72.28
17785;BME280;9016;53.582;10.062;2023-01-27T10:34:59;102840.31;;;6.22;70.94
17785;BME280;9016;53.582;10.062;2023-01-27T10:37:38;102849.31;;;6.03;70.24
17785;BME280;9016;53.582;10.062;2023-01-27T10:40:15;102855.44;;;6.08;71.24
17785;BME280;9016;53.582;10.062;2023-01-27T10:42:51;102849.28;;;6.01;71.52
17785;BME280;9016;53.582;10.062;2023-01-27T10:45:26;102838.59;;;6.17;71.59
17785;BME280;9016;53.582;10.062;2023-01-27T10:50:45;102845.59;;;6.25;71.12
17785;BME280;9016;53.582;10.062;2023-01-27T10:53:20;102837.59;;;6.28;71.94
17785;BME280;9016;53.582;10.062;2023-01-27T10:55:57;102839.41;;;6.22;70.41
17785;BME280;9016;53.582;10.062;2023-01-27T10:58:38;102834.19;;;6.17;69.63
17785;BME280;9016;53.582;10.062;2023-01-27T11:01:11;102826.19;;;6.20;70.28
17785;BME280;9016;53.582;10.062;2023-01-27T11:03:51;102830.72;;;6.12;69.62
17785;BME280;9016;53.582;10.062;2023-01-27T11:06:26;102825.41;;;6.11;70.35
17785;BME280;9016;53.582;10.062;2023-01-27T11:09:05;102830.59;;;6.24;69.50
17785;BME280;9016;53.582;10.062;2023-01-27T11:11:36;102819.09;;;6.24;69.38
17785;BME280;9016;53.582;10.062;2023-01-27T11:14:20;102825.16;;;6.38;68.88
17785;BME280;9016;53.582;10.062;2023-01-27T11:16:52;102822.69;;;6.21;69.53
17785;BME280;9016;53.582;10.062;2023-01-27T11:19:32;102836.84;;;6.13;69.08
17785;BME280;9016;53.582;10.062;2023-01-27T11:22:02;102829.69;;;6.27;70.28
17785;BME280;9016;53.582;10.062;2023-01-27T11:24:41;102827.91;;;6.29;69.21
17785;BME280;9016;53.582;10.062;2023-01-27T11:27:16;102828.84;;;6.23;69.69
17785;BME280;9016;53.582;10.062;2023-01-27T11:29:50;102833.34;;;6.09;69.38
17785;BME280;9016;53.582;10.062;2023-01-27T11:32:30;102837.13;;;5.76;69.15
17785;BME280;9016;53.582;10.062;2023-01-27T11:35:03;102829.19;;;5.72;70.38
17785;BME280;9016;53.582;10.062;2023-01-27T11:37:34;102832.78;;;5.65;70.15
17785;BME280;9016;53.582;10.062;2023-01-27T11:40:13;102830.09;;;5.75;69.51
17785;BME280;9016;53.582;10.062;2023-01-27T11:42:43;102831.84;;;5.73;69.84
17785;BME280;9016;53.582;10.062;2023-01-27T11:45:13;102828.25;;;5.82;70.51
17785;BME280;9016;53.582;10.062;2023-01-27T11:47:46;102821.13;;;5.96;69.92
17785;BME280;9016;53.582;10.062;2023-01-27T11:50:17;102820.09;;;6.11;69.93
17785;BME280;9016;53.582;10.062;2023-01-27T11:52:49;102821.69;;;6.31;69.43
17785;BME280;9016;53.582;10.062;2023-01-27T11:55:21;102817.09;;;6.50;69.02
17785;BME280;9016;53.582;10.062;2023-01-27T11:57:54;102814.44;;;6.53;67.52
17785;BME280;9016;53.582;10.062;2023-01-27T12:00:26;102807.34;;;6.53;68.07
17785;BME280;9016;53.582;10.062;2023-01-27T12:03:02;102818.94;;;6.42;68.52
17785;BME280;9016;53.582;10.062;2023-01-27T12:05:33;102827.81;;;6.35;69.49
17785;BME280;9016;53.582;10.062;2023-01-27T12:08:04;102807.34;;;6.53;69.12
17785;BME280;9016;53.582;10.062;2023-01-27T12:10:36;102809.13;;;6.53;68.67
17785;BME280;9016;53.582;10.062;2023-01-27T12:13:08;102807.41;;;6.47;67.25
17785;BME280;9016;53.582;10.062;2023-01-27T12:15:37;102811.97;;;6.33;68.68
17785;BME280;9016;53.582;10.062;2023-01-27T12:18:15;102801.41;;;6.27;68.90
17785;BME280;9016;53.582;10.062;2023-01-27T12:20:44;102793.41;;;6.33;69.61
17785;BME280;9016;53.582;10.062;2023-01-27T12:23:19;102796.91;;;6.40;69.40
17785;BME280;9016;53.582;10.062;2023-01-27T12:25:51;102795.00;;;6.49;68.35
17785;BME280;9016;53.582;10.062;2023-01-27T12:28:27;102789.63;;;6.58;67.10
17785;BME280;9016;53.582;10.062;2023-01-27T12:31:03;102795.81;;;6.57;67.52
17785;BME280;9016;53.582;10.062;2023-01-27T12:33:33;102795.94;;;6.47;66.22
17785;BME280;9016;53.582;10.062;2023-01-27T12:36:10;102798.53;;;6.50;65.97
17785;BME280;9016;53.582;10.062;2023-01-27T12:38:44;102790.44;;;6.65;65.36
17785;BME280;9016;53.582;10.062;2023-01-27T12:41:20;102797.66;;;6.52;64.24
17785;BME280;9016;53.582;10.062;2023-01-27T12:43:51;102796.94;;;6.35;64.32
17785;BME280;9016;53.582;10.062;2023-01-27T12:46:22;102814.63;;;6.32;64.86
17785;BME280;9016;53.582;10.062;2023-01-27T12:48:52;102807.78;;;6.08;64.93
17785;BME280;9016;53.582;10.062;2023-01-27T12:51:22;102811.41;;;5.98;65.15
17785;BME280;9016;53.582;10.062;2023-01-27T12:53:50;102807.84;;;6.02;65.95
17785;BME280;9016;53.582;10.062;2023-01-27T12:56:40;102810.50;;;6.00;65.44
17785;BME280;9016;53.582;10.062;2023-01-27T12:59:11;102811.22;;;6.16;66.25
17785;BME280;9016;53.582;10.062;2023-01-27T13:01:41;102802.19;;;6.40;66.32
17785;BME280;9016;53.582;10.062;2023-01-27T13:04:14;102809.28;;;6.38;64.36
17785;BME280;9016;53.582;10.062;2023-01-27T13:06:45;102790.81;;;6.27;64.69
17785;BME280;9016;53.582;10.062;2023-01-27T13:09:23;102794.34;;;6.29;64.36
17785;BME280;9016;53.582;10.062;2023-01-27T13:11:56;102803.25;;;6.21;65.00
17785;BME280;9016;53.582;10.062;2023-01-27T13:14:27;102802.41;;;6.19;64.57
17785;BME280;9016;53.582;10.062;2023-01-27T13:16:57;102796.13;;;6.29;65.25
17785;BME280;9016;53.582;10.062;2023-01-27T13:19:36;102805.75;;;6.37;63.38
17785;BME280;9016;53.582;10.062;2023-01-27T13:22:15;102798.09;;;6.09;63.89
17785;BME280;9016;53.582;10.062;2023-01-27T13:24:47;102790.31;;;5.89;63.81
17785;BME280;9016;53.582;10.062;2023-01-27T13:27:20;102795.47;;;6.06;63.43
17785;BME280;9016;53.582;10.062;2023-01-27T13:29:54;102792.78;;;6.07;63.23